sensor_id;sensor_type;location;lat;lon;timestamp;pressure;altitude;pressure_sealevel;temperature;humidity
43621;BME280;29213;50.770;7.298;2023-12-20T00:01:00;100720.75;;;5.54;70.44
43621;BME280;29213;50.770;7.298;2023-12-20T00:03:26;100740.41;;;5.61;70.94
43621;BME280;29213;50.770;7.298;2023-12-20T00:05:52;100770.13;;;5.74;70.85
43621;BME280;29213;50.770;7.298;2023-12-20T00:08:17;100764.25;;;5.71;71.20
43621;BME280;29213;50.770;7.298;2023-12-20T00:10:43;100777.72;;;5.89;70.85
43621;BME280;29213;50.770;7.298;2023-12-20T00:13:10;100763.50;;;5.80;70.76
43621;BME280;29213;50.770;7.298;2023-12-20T00:15:36;100715.63;;;5.41;71.17
43621;BME280;29213;50.770;7.298;2023-12-20T00:18:01;100770.09;;;5.86;71.12
43621;BME280;29213;50.770;7.298;2023-12-20T00:20:27;100778.00;;;5.86;71.03
43621;BME280;29213;50.770;7.298;2023-12-20T00:22:55;100740.41;;;5.61;70.92
43621;BME280;29213;50.770;7.298;2023-12-20T00:25:21;100754.00;;;5.78;71.00
43621;BME280;29213;50.770;7.298;2023-12-20T00:27:46;100777.09;;;5.97;70.63
43621;BME280;29213;50.770;7.298;2023-12-20T00:30:11;100705.34;;;5.59;70.76
43621;BME280;29213;50.770;7.298;2023-12-20T00:32:38;100795.81;;;6.05;70.67
43621;BME280;29213;50.770;7.298;2023-12-20T00:35:03;100738.09;;;5.68;70.88
43621;BME280;29213;50.770;7.298;2023-12-20T00:37:29;100726.09;;;5.63;70.53
43621;BME280;29213;50.770;7.298;2023-12-20T00:39:54;100794.91;;;6.16;70.63
43621;BME280;29213;50.770;7.298;2023-12-20T00:42:19;100786.63;;;6.09;70.57
43621;BME280;29213;50.770;7.298;2023-12-20T00:44:45;100726.66;;;5.67;70.75
43621;BME280;29213;50.770;7.298;2023-12-20T00:47:10;100790.72;;;6.13;70.72
43621;BME280;29213;50.770;7.298;2023-12-20T00:49:36;100630.38;;;5.17;70.50
43621;BME280;29213;50.770;7.298;2023-12-20T00:52:01;100807.16;;;6.17;70.59
43621;BME280;29213;50.770;7.298;2023-12-20T00:54:27;100726.59;;;5.79;70.26
43621;BME280;29213;50.770;7.298;2023-12-20T00:56:52;100675.72;;;5.55;70.34
43621;BME280;29213;50.770;7.298;2023-12-20T00:59:17;100689.84;;;5.54;70.51
43621;BME280;29213;50.770;7.298;2023-12-20T01:01:43;100766.56;;;6.07;70.59
43621;BME280;29213;50.770;7.298;2023-12-20T01:04:09;100754.53;;;5.93;70.48
43621;BME280;29213;50.770;7.298;2023-12-20T01:06:35;100708.03;;;5.69;70.34
43621;BME280;29213;50.770;7.298;2023-12-20T01:09:00;100724.69;;;5.81;70.39
43621;BME280;29213;50.770;7.298;2023-12-20T01:11:26;100792.00;;;6.19;70.63
43621;BME280;29213;50.770;7.298;2023-12-20T01:13:51;100718.03;;;5.65;70.37
43621;BME280;29213;50.770;7.298;2023-12-20T01:16:17;100786.91;;;6.06;70.62
43621;BME280;29213;50.770;7.298;2023-12-20T01:18:42;100738.16;;;5.78;70.65
43621;BME280;29213;50.770;7.298;2023-12-20T01:21:07;100822.50;;;6.02;71.39
43621;BME280;29213;50.770;7.298;2023-12-20T01:23:33;100759.53;;;5.53;71.56
43621;BME280;29213;50.770;7.298;2023-12-20T01:25:58;100766.50;;;5.43;72.00
43621;BME280;29213;50.770;7.298;2023-12-20T01:28:25;100793.34;;;5.59;71.98
43621;BME280;29213;50.770;7.298;2023-12-20T01:30:50;100832.28;;;5.90;71.76
43621;BME280;29213;50.770;7.298;2023-12-20T01:33:16;100717.84;;;5.24;71.86
43621;BME280;29213;50.770;7.298;2023-12-20T01:35:41;100836.75;;;5.89;72.07
43621;BME280;29213;50.770;7.298;2023-12-20T01:38:06;100777.78;;;5.56;72.20
43621;BME280;29213;50.770;7.298;2023-12-20T01:40:32;100833.00;;;5.92;72.04
43621;BME280;29213;50.770;7.298;2023-12-20T01:43:01;100842.63;;;5.93;72.02
43621;BME280;29213;50.770;7.298;2023-12-20T01:45:27;100751.41;;;5.45;72.00
43621;BME280;29213;50.770;7.298;2023-12-20T01:47:57;100832.03;;;5.93;71.86
43621;BME280;29213;50.770;7.298;2023-12-20T01:50:23;100728.53;;;5.22;72.12
43621;BME280;29213;50.770;7.298;2023-12-20T01:52:50;100777.19;;;5.53;71.87
43621;BME280;29213;50.770;7.298;2023-12-20T01:55:19;100777.69;;;5.46;72.18
43621;BME280;29213;50.770;7.298;2023-12-20T01:57:44;100782.97;;;5.46;72.00
43621;BME280;29213;50.770;7.298;2023-12-20T02:00:11;100770.03;;;5.32;72.41
43621;BME280;29213;50.770;7.298;2023-12-20T02:02:39;100852.38;;;5.81;72.45
43621;BME280;29213;50.770;7.298;2023-12-20T02:05:05;100856.34;;;5.87;72.12
43621;BME280;29213;50.770;7.298;2023-12-20T02:07:31;100793.28;;;5.49;71.75
43621;BME280;29213;50.770;7.298;2023-12-20T02:09:56;100814.72;;;5.68;71.31
43621;BME280;29213;50.770;7.298;2023-12-20T02:12:22;100859.06;;;5.97;71.24
43621;BME280;29213;50.770;7.298;2023-12-20T02:14:48;100859.28;;;5.94;71.03
43621;BME280;29213;50.770;7.298;2023-12-20T02:17:13;100817.75;;;5.63;71.04
43621;BME280;29213;50.770;7.298;2023-12-20T02:19:39;100860.66;;;5.88;70.78
43621;BME280;29213;50.770;7.298;2023-12-20T02:22:15;100764.09;;;5.07;71.00
43621;BME280;29213;50.770;7.298;2023-12-20T02:24:40;100837.81;;;5.54;71.06
43621;BME280;29213;50.770;7.298;2023-12-20T02:27:07;100862.63;;;5.74;70.73
43621;BME280;29213;50.770;7.298;2023-12-20T02:29:33;100822.13;;;5.41;70.52
43621;BME280;29213;50.770;7.298;2023-12-20T02:31:59;100738.59;;;4.73;70.71
43621;BME280;29213;50.770;7.298;2023-12-20T02:34:25;100706.59;;;4.55;70.39
43621;BME280;29213;50.770;7.298;2023-12-20T02:36:50;100881.88;;;5.65;70.63
43621;BME280;29213;50.770;7.298;2023-12-20T02:39:16;100883.66;;;5.65;69.79
43621;BME280;29213;50.770;7.298;2023-12-20T02:41:41;100769.41;;;4.84;69.31
43621;BME280;29213;50.770;7.298;2023-12-20T02:44:07;100727.19;;;4.38;68.26
43621;BME280;29213;50.770;7.298;2023-12-20T02:46:32;100826.06;;;4.91;67.76
43621;BME280;29213;50.770;7.298;2023-12-20T02:48:57;100852.06;;;4.96;68.01
43621;BME280;29213;50.770;7.298;2023-12-20T02:51:23;100900.66;;;5.16;67.93
43621;BME280;29213;50.770;7.298;2023-12-20T02:53:48;100860.38;;;4.91;67.14
43621;BME280;29213;50.770;7.298;2023-12-20T02:56:13;100897.06;;;5.17;67.00
43621;BME280;29213;50.770;7.298;2023-12-20T02:58:39;100914.25;;;5.12;67.02
43621;BME280;29213;50.770;7.298;2023-12-20T03:01:05;100906.31;;;4.89;67.03
43621;BME280;29213;50.770;7.298;2023-12-20T03:03:31;100906.16;;;4.79;66.81
43621;BME280;29213;50.770;7.298;2023-12-20T03:05:56;100814.91;;;4.18;66.96
43621;BME280;29213;50.770;7.298;2023-12-20T03:08:22;100922.84;;;4.79;66.77
43621;BME280;29213;50.770;7.298;2023-12-20T03:10:47;100930.03;;;4.77;66.85
43621;BME280;29213;50.770;7.298;2023-12-20T03:13:13;100832.16;;;4.22;66.83
43621;BME280;29213;50.770;7.298;2023-12-20T03:15:38;100922.94;;;4.78;66.36
43621;BME280;29213;50.770;7.298;2023-12-20T03:18:04;100921.06;;;4.80;67.18
43621;BME280;29213;50.770;7.298;2023-12-20T03:20:29;100916.88;;;4.89;67.11
43621;BME280;29213;50.770;7.298;2023-12-20T03:22:58;100827.41;;;4.50;66.88
43621;BME280;29213;50.770;7.298;2023-12-20T03:25:23;100900.19;;;4.88;66.22
43621;BME280;29213;50.770;7.298;2023-12-20T03:27:49;100837.78;;;4.53;66.50
43621;BME280;29213;50.770;7.298;2023-12-20T03:30:14;100842.59;;;4.59;66.69
43621;BME280;29213;50.770;7.298;2023-12-20T03:32:39;100844.09;;;4.50;66.29
43621;BME280;29213;50.770;7.298;2023-12-20T03:35:05;100921.31;;;5.00;66.43
43621;BME280;29213;50.770;7.298;2023-12-20T03:37:31;100807.50;;;4.34;66.24
43621;BME280;29213;50.770;7.298;2023-12-20T03:39:56;100778.72;;;4.20;66.47
43621;BME280;29213;50.770;7.298;2023-12-20T03:42:22;100836.72;;;4.55;65.79
43621;BME280;29213;50.770;7.298;2023-12-20T03:44:47;100913.66;;;5.08;66.46
43621;BME280;29213;50.770;7.298;2023-12-20T03:47:12;100862.03;;;4.81;66.35
43621;BME280;29213;50.770;7.298;2023-12-20T03:49:38;100815.91;;;4.51;65.96
43621;BME280;29213;50.770;7.298;2023-12-20T03:52:04;100905.72;;;5.19;65.79
43621;BME280;29213;50.770;7.298;2023-12-20T03:54:30;100848.72;;;4.82;65.77
43621;BME280;29213;50.770;7.298;2023-12-20T03:56:55;100788.94;;;4.47;65.79
43621;BME280;29213;50.770;7.298;2023-12-20T03:59:20;100862.16;;;4.91;66.03
43621;BME280;29213;50.770;7.298;2023-12-20T04:01:46;100903.78;;;5.10;66.20
43621;BME280;29213;50.770;7.298;2023-12-20T04:04:12;100855.78;;;4.71;66.12
43621;BME280;29213;50.770;7.298;2023-12-20T04:06:37;100820.34;;;4.50;66.28
43621;BME280;29213;50.770;7.298;2023-12-20T04:09:03;100917.34;;;5.05;66.32
43621;BME280;29213;50.770;7.298;2023-12-20T04:11:28;100798.03;;;4.32;65.97
43621;BME280;29213;50.770;7.298;2023-12-20T04:13:54;100791.66;;;4.23;66.23
43621;BME280;29213;50.770;7.298;2023-12-20T04:16:19;100900.78;;;4.92;66.45
43621;BME280;29213;50.770;7.298;2023-12-20T04:18:44;100886.75;;;4.80;66.26
43621;BME280;29213;50.770;7.298;2023-12-20T04:21:10;100781.34;;;4.08;65.79
43621;BME280;29213;50.770;7.298;2023-12-20T04:23:35;100927.78;;;4.95;66.46
43621;BME280;29213;50.770;7.298;2023-12-20T04:26:01;100924.41;;;4.93;66.10
43621;BME280;29213;50.770;7.298;2023-12-20T04:28:26;100885.03;;;4.79;66.16
43621;BME280;29213;50.770;7.298;2023-12-20T04:30:51;100886.97;;;4.88;66.25
43621;BME280;29213;50.770;7.298;2023-12-20T04:33:17;100824.28;;;4.45;65.97
43621;BME280;29213;50.770;7.298;2023-12-20T04:35:42;100867.03;;;4.73;66.07
43621;BME280;29213;50.770;7.298;2023-12-20T04:38:08;100921.56;;;5.08;66.05
43621;BME280;29213;50.770;7.298;2023-12-20T04:40:34;100840.16;;;4.56;66.11
43621;BME280;29213;50.770;7.298;2023-12-20T04:42:59;100852.44;;;4.68;65.92
43621;BME280;29213;50.770;7.298;2023-12-20T04:45:25;100925.28;;;5.05;65.76
43621;BME280;29213;50.770;7.298;2023-12-20T04:47:51;100828.19;;;4.52;65.86
43621;BME280;29213;50.770;7.298;2023-12-20T04:50:16;100817.81;;;4.37;65.67
43621;BME280;29213;50.770;7.298;2023-12-20T04:52:42;100924.44;;;5.05;65.29
43621;BME280;29213;50.770;7.298;2023-12-20T04:55:07;100855.66;;;4.61;65.72
43621;BME280;29213;50.770;7.298;2023-12-20T04:57:34;100821.44;;;4.48;65.71
43621;BME280;29213;50.770;7.298;2023-12-20T05:00:00;100918.06;;;5.07;65.88
43621;BME280;29213;50.770;7.298;2023-12-20T05:02:25;100776.56;;;4.25;65.81
43621;BME280;29213;50.770;7.298;2023-12-20T05:04:50;100878.09;;;4.78;65.62
43621;BME280;29213;50.770;7.298;2023-12-20T05:07:16;100810.75;;;4.38;65.64
43621;BME280;29213;50.770;7.298;2023-12-20T05:09:41;100924.06;;;5.09;64.99
43621;BME280;29213;50.770;7.298;2023-12-20T05:12:07;100924.06;;;4.98;65.45
43621;BME280;29213;50.770;7.298;2023-12-20T05:14:33;100930.41;;;5.07;65.77
43621;BME280;29213;50.770;7.298;2023-12-20T05:16:58;100924.06;;;4.98;65.79
43621;BME280;29213;50.770;7.298;2023-12-20T05:19:24;100822.50;;;4.34;65.83
43621;BME280;29213;50.770;7.298;2023-12-20T05:21:50;100858.41;;;4.71;65.45
43621;BME280;29213;50.770;7.298;2023-12-20T05:24:15;100865.84;;;4.77;65.52
43621;BME280;29213;50.770;7.298;2023-12-20T05:26:40;100874.25;;;4.82;65.47
43621;BME280;29213;50.770;7.298;2023-12-20T05:29:06;100872.97;;;4.76;64.71
43621;BME280;29213;50.770;7.298;2023-12-20T05:31:31;100917.47;;;4.92;65.43
43621;BME280;29213;50.770;7.298;2023-12-20T05:33:57;100934.00;;;4.94;65.45
43621;BME280;29213;50.770;7.298;2023-12-20T05:36:23;100809.19;;;4.24;65.65
43621;BME280;29213;50.770;7.298;2023-12-20T05:38:48;100831.28;;;4.46;65.37
43621;BME280;29213;50.770;7.298;2023-12-20T05:41:14;100903.56;;;4.90;64.66
43621;BME280;29213;50.770;7.298;2023-12-20T05:43:39;100905.94;;;4.82;64.96
43621;BME280;29213;50.770;7.298;2023-12-20T05:46:05;100824.63;;;4.28;65.11
43621;BME280;29213;50.770;7.298;2023-12-20T05:48:30;100917.47;;;4.92;65.25
43621;BME280;29213;50.770;7.298;2023-12-20T05:50:56;100939.91;;;5.09;65.10
43621;BME280;29213;50.770;7.298;2023-12-20T05:53:21;100940.53;;;5.13;65.07
43621;BME280;29213;50.770;7.298;2023-12-20T05:55:46;100904.75;;;4.86;64.68
43621;BME280;29213;50.770;7.298;2023-12-20T05:58:12;100952.50;;;5.06;64.37
43621;BME280;29213;50.770;7.298;2023-12-20T06:00:38;100918.66;;;4.88;64.88
43621;BME280;29213;50.770;7.298;2023-12-20T06:03:03;100826.59;;;4.38;64.78
43621;BME280;29213;50.770;7.298;2023-12-20T06:05:30;100823.81;;;4.39;64.85
43621;BME280;29213;50.770;7.298;2023-12-20T06:07:56;100826.22;;;4.42;64.62
43621;BME280;29213;50.770;7.298;2023-12-20T06:10:26;100807.25;;;4.26;64.61
43621;BME280;29213;50.770;7.298;2023-12-20T06:12:52;100837.38;;;4.46;64.72
43621;BME280;29213;50.770;7.298;2023-12-20T06:15:17;100867.88;;;4.62;64.62
43621;BME280;29213;50.770;7.298;2023-12-20T06:17:43;100950.94;;;5.03;64.16
43621;BME280;29213;50.770;7.298;2023-12-20T06:20:09;100916.75;;;4.90;64.50
43621;BME280;29213;50.770;7.298;2023-12-20T06:22:35;100932.59;;;5.02;64.83
43621;BME280;29213;50.770;7.298;2023-12-20T06:25:02;100768.03;;;3.98;65.13
43621;BME280;29213;50.770;7.298;2023-12-20T06:27:28;100927.53;;;4.99;65.13
43621;BME280;29213;50.770;7.298;2023-12-20T06:29:54;100753.84;;;3.88;65.18
43621;BME280;29213;50.770;7.298;2023-12-20T06:32:19;100910.25;;;4.83;65.55
43621;BME280;29213;50.770;7.298;2023-12-20T06:34:44;100940.63;;;4.89;65.70
43621;BME280;29213;50.770;7.298;2023-12-20T06:37:10;100853.63;;;4.28;66.27
43621;BME280;29213;50.770;7.298;2023-12-20T06:39:35;100926.81;;;4.74;66.06
43621;BME280;29213;50.770;7.298;2023-12-20T06:42:01;100906.13;;;4.56;66.14
43621;BME280;29213;50.770;7.298;2023-12-20T06:44:26;100944.94;;;4.90;66.42
43621;BME280;29213;50.770;7.298;2023-12-20T06:46:51;100948.66;;;4.99;66.11
43621;BME280;29213;50.770;7.298;2023-12-20T06:49:17;100952.50;;;5.06;66.00
43621;BME280;29213;50.770;7.298;2023-12-20T06:51:43;100900.53;;;4.72;65.90
43621;BME280;29213;50.770;7.298;2023-12-20T06:54:09;100949.63;;;5.09;65.71
43621;BME280;29213;50.770;7.298;2023-12-20T06:56:34;100952.66;;;5.04;65.69
43621;BME280;29213;50.770;7.298;2023-12-20T06:58:59;100875.75;;;4.50;65.64
43621;BME280;29213;50.770;7.298;2023-12-20T07:01:25;100843.94;;;4.29;65.60
43621;BME280;29213;50.770;7.298;2023-12-20T07:03:50;100748.38;;;3.67;65.57
43621;BME280;29213;50.770;7.298;2023-12-20T07:06:16;100900.63;;;4.71;65.56
43621;BME280;29213;50.770;7.298;2023-12-20T07:08:42;100946.13;;;4.97;65.39
43621;BME280;29213;50.770;7.298;2023-12-20T07:11:07;100924.53;;;4.92;65.72
43621;BME280;29213;50.770;7.298;2023-12-20T07:13:33;100921.06;;;4.91;65.74
43621;BME280;29213;50.770;7.298;2023-12-20T07:15:58;100848.28;;;4.41;65.36
43621;BME280;29213;50.770;7.298;2023-12-20T07:18:24;100821.88;;;4.30;65.35
43621;BME280;29213;50.770;7.298;2023-12-20T07:20:49;100855.47;;;4.51;65.19
43621;BME280;29213;50.770;7.298;2023-12-20T07:23:15;100951.69;;;5.05;65.32
43621;BME280;29213;50.770;7.298;2023-12-20T07:25:40;100930.06;;;4.89;65.38
43621;BME280;29213;50.770;7.298;2023-12-20T07:28:05;100874.59;;;4.54;65.38
43621;BME280;29213;50.770;7.298;2023-12-20T07:30:31;100961.88;;;4.99;65.30
43621;BME280;29213;50.770;7.298;2023-12-20T07:32:56;100792.03;;;3.82;65.08
43621;BME280;29213;50.770;7.298;2023-12-20T07:35:23;100907.06;;;4.55;65.28
43621;BME280;29213;50.770;7.298;2023-12-20T07:37:48;100931.19;;;4.62;65.06
43621;BME280;29213;50.770;7.298;2023-12-20T07:40:14;100970.72;;;4.86;65.43
43621;BME280;29213;50.770;7.298;2023-12-20T07:42:42;100930.25;;;4.63;65.09
43621;BME280;29213;50.770;7.298;2023-12-20T07:45:08;100925.94;;;4.62;65.27
43621;BME280;29213;50.770;7.298;2023-12-20T07:47:34;100918.69;;;4.52;65.08
43621;BME280;29213;50.770;7.298;2023-12-20T07:49:59;100931.22;;;4.73;64.62
43621;BME280;29213;50.770;7.298;2023-12-20T07:52:25;100938.19;;;4.74;65.09
43621;BME280;29213;50.770;7.298;2023-12-20T07:54:51;100891.75;;;4.60;64.57
43621;BME280;29213;50.770;7.298;2023-12-20T07:57:16;100973.16;;;5.12;64.84
43621;BME280;29213;50.770;7.298;2023-12-20T07:59:42;100794.97;;;4.02;64.30
43621;BME280;29213;50.770;7.298;2023-12-20T08:02:09;100871.59;;;4.59;63.91
43621;BME280;29213;50.770;7.298;2023-12-20T08:04:34;100763.03;;;3.82;63.73
43621;BME280;29213;50.770;7.298;2023-12-20T08:07:00;100819.91;;;4.09;63.66
43621;BME280;29213;50.770;7.298;2023-12-20T08:09:25;100894.00;;;4.53;64.11
43621;BME280;29213;50.770;7.298;2023-12-20T08:11:51;100898.63;;;4.50;64.23
43621;BME280;29213;50.770;7.298;2023-12-20T08:14:16;100928.00;;;4.69;64.37
43621;BME280;29213;50.770;7.298;2023-12-20T08:16:42;100905.69;;;4.62;63.65
43621;BME280;29213;50.770;7.298;2023-12-20T08:19:07;100957.78;;;4.94;63.88
43621;BME280;29213;50.770;7.298;2023-12-20T08:21:33;100880.81;;;4.53;63.43
43621;BME280;29213;50.770;7.298;2023-12-20T08:23:58;100949.13;;;4.92;63.47
43621;BME280;29213;50.770;7.298;2023-12-20T08:26:26;100972.91;;;5.04;63.01
43621;BME280;29213;50.770;7.298;2023-12-20T08:28:51;100968.94;;;4.98;63.46
43621;BME280;29213;50.770;7.298;2023-12-20T08:31:17;100982.38;;;4.95;63.13
43621;BME280;29213;50.770;7.298;2023-12-20T08:33:44;100975.44;;;4.94;63.36
43621;BME280;29213;50.770;7.298;2023-12-20T08:36:11;100849.91;;;4.20;63.08
43621;BME280;29213;50.770;7.298;2023-12-20T08:38:36;100934.44;;;4.65;62.96
43621;BME280;29213;50.770;7.298;2023-12-20T08:41:02;100953.06;;;4.75;62.90
43621;BME280;29213;50.770;7.298;2023-12-20T08:43:28;100955.00;;;4.85;63.03
43621;BME280;29213;50.770;7.298;2023-12-20T08:45:54;100954.28;;;4.82;62.99
43621;BME280;29213;50.770;7.298;2023-12-20T08:48:19;100940.84;;;4.86;63.06
43621;BME280;29213;50.770;7.298;2023-12-20T08:50:44;100937.63;;;4.93;63.34
43621;BME280;29213;50.770;7.298;2023-12-20T08:53:11;100891.53;;;4.63;62.85
43621;BME280;29213;50.770;7.298;2023-12-20T08:55:36;100844.88;;;4.28;63.05
43621;BME280;29213;50.770;7.298;2023-12-20T08:58:02;100904.72;;;4.75;62.64
43621;BME280;29213;50.770;7.298;2023-12-20T09:00:27;100952.88;;;5.13;62.53
43621;BME280;29213;50.770;7.298;2023-12-20T09:02:54;100956.47;;;5.00;62.47
43621;BME280;29213;50.770;7.298;2023-12-20T09:05:20;100834.59;;;4.25;62.32
43621;BME280;29213;50.770;7.298;2023-12-20T09:07:45;100928.59;;;4.85;62.34
43621;BME280;29213;50.770;7.298;2023-12-20T09:10:10;100957.56;;;5.09;61.97
43621;BME280;29213;50.770;7.298;2023-12-20T09:12:36;100956.13;;;5.16;62.05
43621;BME280;29213;50.770;7.298;2023-12-20T09:15:05;100921.19;;;5.01;62.15
43621;BME280;29213;50.770;7.298;2023-12-20T09:17:30;100938.50;;;5.17;61.73
43621;BME280;29213;50.770;7.298;2023-12-20T09:19:56;100962.25;;;5.28;61.93
43621;BME280;29213;50.770;7.298;2023-12-20T09:22:21;100935.00;;;5.16;61.75
43621;BME280;29213;50.770;7.298;2023-12-20T09:24:47;100941.25;;;5.15;61.23
43621;BME280;29213;50.770;7.298;2023-12-20T09:27:12;100817.22;;;4.34;61.25
43621;BME280;29213;50.770;7.298;2023-12-20T09:29:37;100939.91;;;5.09;60.93
43621;BME280;29213;50.770;7.298;2023-12-20T09:32:03;100960.91;;;5.34;61.83
43621;BME280;29213;50.770;7.298;2023-12-20T09:34:29;100958.66;;;5.29;60.24
43621;BME280;29213;50.770;7.298;2023-12-20T09:36:54;100969.59;;;5.25;61.13
43621;BME280;29213;50.770;7.298;2023-12-20T09:39:20;100911.59;;;4.89;61.20
43621;BME280;29213;50.770;7.298;2023-12-20T09:41:56;100962.59;;;5.23;61.27
43621;BME280;29213;50.770;7.298;2023-12-20T09:44:25;100881.97;;;4.85;60.59
43621;BME280;29213;50.770;7.298;2023-12-20T09:46:51;100845.09;;;4.61;61.24
43621;BME280;29213;50.770;7.298;2023-12-20T09:49:18;100958.53;;;5.31;60.65
43621;BME280;29213;50.770;7.298;2023-12-20T09:51:46;100844.53;;;4.68;60.96
43621;BME280;29213;50.770;7.298;2023-12-20T09:54:14;100956.38;;;5.36;60.66
43621;BME280;29213;50.770;7.298;2023-12-20T09:56:39;100961.66;;;5.36;60.33
43621;BME280;29213;50.770;7.298;2023-12-20T09:59:04;100762.91;;;4.20;60.56
43621;BME280;29213;50.770;7.298;2023-12-20T10:01:31;100916.28;;;5.19;60.65
43621;BME280;29213;50.770;7.298;2023-12-20T10:03:57;100919.41;;;5.13;60.97
43621;BME280;29213;50.770;7.298;2023-12-20T10:06:23;100870.44;;;4.86;60.45
43621;BME280;29213;50.770;7.298;2023-12-20T10:08:49;100888.44;;;4.92;60.51
43621;BME280;29213;50.770;7.298;2023-12-20T10:11:14;100917.22;;;5.07;60.53
43621;BME280;29213;50.770;7.298;2023-12-20T10:13:41;100953.84;;;5.34;60.50
43621;BME280;29213;50.770;7.298;2023-12-20T10:16:06;100674.84;;;3.52;60.92
43621;BME280;29213;50.770;7.298;2023-12-20T10:18:33;100942.69;;;5.31;60.87
43621;BME280;29213;50.770;7.298;2023-12-20T10:21:00;100911.59;;;5.12;60.82
43621;BME280;29213;50.770;7.298;2023-12-20T10:23:25;100926.38;;;5.26;60.21
43621;BME280;29213;50.770;7.298;2023-12-20T10:25:59;100813.78;;;4.56;60.43
43621;BME280;29213;50.770;7.298;2023-12-20T10:28:25;100842.59;;;4.82;60.99
43621;BME280;29213;50.770;7.298;2023-12-20T10:30:54;100934.97;;;5.51;60.96
43621;BME280;29213;50.770;7.298;2023-12-20T10:33:27;100902.00;;;5.22;60.44
43621;BME280;29213;50.770;7.298;2023-12-20T10:35:54;100934.75;;;5.31;59.84
43621;BME280;29213;50.770;7.298;2023-12-20T10:38:20;100907.88;;;5.03;60.77
43621;BME280;29213;50.770;7.298;2023-12-20T10:40:46;100906.06;;;5.15;60.90
43621;BME280;29213;50.770;7.298;2023-12-20T10:43:12;100900.78;;;5.15;60.65
43621;BME280;29213;50.770;7.298;2023-12-20T10:45:37;100927.44;;;5.34;60.79
43621;BME280;29213;50.770;7.298;2023-12-20T10:48:04;100913.97;;;5.26;60.45
43621;BME280;29213;50.770;7.298;2023-12-20T10:50:30;100914.34;;;5.33;60.31
43621;BME280;29213;50.770;7.298;2023-12-20T10:52:56;100845.81;;;4.86;60.43
43621;BME280;29213;50.770;7.298;2023-12-20T10:55:25;100911.97;;;5.30;60.44
43621;BME280;29213;50.770;7.298;2023-12-20T10:57:51;100904.03;;;5.18;61.00
43621;BME280;29213;50.770;7.298;2023-12-20T11:00:18;100868.63;;;5.09;61.15
43621;BME280;29213;50.770;7.298;2023-12-20T11:02:44;100899.56;;;5.30;60.83
43621;BME280;29213;50.770;7.298;2023-12-20T11:05:12;100783.34;;;4.63;60.78
43621;BME280;29213;50.770;7.298;2023-12-20T11:07:46;100833.97;;;5.03;60.69
43621;BME280;29213;50.770;7.298;2023-12-20T11:10:21;100790.41;;;4.74;60.33
43621;BME280;29213;50.770;7.298;2023-12-20T11:13:34;100844.84;;;5.09;60.65
43621;BME280;29213;50.770;7.298;2023-12-20T11:15:52;100765.84;;;4.74;60.36
43621;BME280;29213;50.770;7.298;2023-12-20T11:18:18;100887.44;;;5.39;61.00
43621;BME280;29213;50.770;7.298;2023-12-20T11:20:43;100780.22;;;4.81;60.84
43621;BME280;29213;50.770;7.298;2023-12-20T11:23:09;100853.50;;;5.23;60.36
43621;BME280;29213;50.770;7.298;2023-12-20T11:25:55;100906.38;;;5.56;60.79
43621;BME280;29213;50.770;7.298;2023-12-20T11:28:24;100884.56;;;5.42;60.47
43621;BME280;29213;50.770;7.298;2023-12-20T11:30:55;100739.91;;;4.67;65.25
43621;BME280;29213;50.770;7.298;2023-12-20T11:33:32;100824.97;;;5.49;61.63
43621;BME280;29213;50.770;7.298;2023-12-20T11:36:00;100881.63;;;5.57;60.03
43621;BME280;29213;50.770;7.298;2023-12-20T11:38:26;100828.56;;;5.16;60.58
43621;BME280;29213;50.770;7.298;2023-12-20T11:40:54;100917.53;;;5.59;60.10
43621;BME280;29213;50.770;7.298;2023-12-20T11:43:35;100882.75;;;5.43;60.55
43621;BME280;29213;50.770;7.298;2023-12-20T11:46:05;100819.69;;;5.05;60.44
43621;BME280;29213;50.770;7.298;2023-12-20T11:48:31;100871.00;;;5.35;59.99
43621;BME280;29213;50.770;7.298;2023-12-20T11:50:57;100851.78;;;5.45;60.48
43621;BME280;29213;50.770;7.298;2023-12-20T11:53:23;100888.84;;;5.66;60.35
43621;BME280;29213;50.770;7.298;2023-12-20T11:55:49;100891.75;;;5.96;62.62
43621;BME280;29213;50.770;7.298;2023-12-20T11:58:14;100870.59;;;5.96;60.64
43621;BME280;29213;50.770;7.298;2023-12-20T12:00:42;100894.59;;;6.04;59.79
43621;BME280;29213;50.770;7.298;2023-12-20T12:03:14;100888.38;;;5.94;59.75
43621;BME280;29213;50.770;7.298;2023-12-20T12:05:39;100850.38;;;5.73;59.39
43621;BME280;29213;50.770;7.298;2023-12-20T12:08:05;100844.38;;;5.71;59.88
43621;BME280;29213;50.770;7.298;2023-12-20T12:10:31;100850.09;;;5.88;60.06
43621;BME280;29213;50.770;7.298;2023-12-20T12:12:56;100824.56;;;5.66;59.66
43621;BME280;29213;50.770;7.298;2023-12-20T12:15:22;100553.81;;;4.08;59.93
43621;BME280;29213;50.770;7.298;2023-12-20T12:17:56;100738.97;;;5.57;62.70
43621;BME280;29213;50.770;7.298;2023-12-20T12:20:23;100794.44;;;5.89;60.00
43621;BME280;29213;50.770;7.298;2023-12-20T12:23:03;100803.00;;;5.82;59.47
43621;BME280;29213;50.770;7.298;2023-12-20T12:25:30;100852.38;;;6.14;59.74
43621;BME280;29213;50.770;7.298;2023-12-20T12:27:57;100845.84;;;6.18;59.12
43621;BME280;29213;50.770;7.298;2023-12-20T12:30:23;100817.09;;;6.03;59.66
43621;BME280;29213;50.770;7.298;2023-12-20T12:32:50;100853.53;;;6.21;59.39
43621;BME280;29213;50.770;7.298;2023-12-20T12:35:16;100789.22;;;5.78;59.86
43621;BME280;29213;50.770;7.298;2023-12-20T12:37:41;100809.22;;;5.92;60.74
43621;BME280;29213;50.770;7.298;2023-12-20T12:40:10;100832.19;;;6.34;58.82
43621;BME280;29213;50.770;7.298;2023-12-20T12:42:37;100757.88;;;5.73;59.42
43621;BME280;29213;50.770;7.298;2023-12-20T12:45:03;100790.56;;;5.94;59.11
43621;BME280;29213;50.770;7.298;2023-12-20T12:47:30;100731.25;;;5.65;58.81
43621;BME280;29213;50.770;7.298;2023-12-20T12:49:56;100797.03;;;6.01;59.09
43621;BME280;29213;50.770;7.298;2023-12-20T12:52:21;100700.16;;;5.36;59.23
43621;BME280;29213;50.770;7.298;2023-12-20T12:54:48;100809.69;;;5.97;59.01